Time;durP1;ratioP1;P1;durP2;ratioP2;P2;SDS_P1;SDS_P2;PMS_P1;PMS_P2;Temp;Humidity;BMP_temperature;BMP_pressure;BME280_temperature;BME280_humidity;BME280_pressure;Samples;Min_cycle;Max_cycle;Signal;HPM_P1;HPM_P2
2022/01/13 00:00:35;;;;;;;15.63;6.10;;;;;;;5.43;35.08;101475.00;4464807;32;32552;-64
2022/01/13 00:03:03;;;;;;;9.20;6.43;;;;;;;5.46;34.73;101474.94;4464586;32;32965;-66
2022/01/13 00:05:31;;;;;;;11.45;7.87;;;;;;;5.45;34.97;101486.44;4459784;32;33762;-65
2022/01/13 00:07:59;;;;;;;16.90;7.53;;;;;;;4.95;36.59;101485.94;4461779;32;33529;-63
2022/01/13 00:10:27;;;;;;;24.08;9.82;;;;;;;4.96;36.77;101487.69;4456514;32;33692;-63
2022/01/13 00:13:03;;;;;;;10.88;6.65;;;;;;;5.70;34.64;101478.72;4458383;32;35162;-65
2022/01/13 00:15:50;;;;;;;13.13;7.85;;;;;;;5.74;34.68;101484.81;4464421;32;35355;-66
2022/01/13 00:18:36;;;;;;;9.00;7.10;;;;;;;5.87;34.49;101488.00;4462639;32;33538;-64
2022/01/13 00:21:30;;;;;;;10.98;7.82;;;;;;;6.03;33.57;101486.69;4464521;32;34970;-65
2022/01/13 00:24:01;;;;;;;22.65;7.82;;;;;;;6.01;34.03;101481.44;4460696;32;33947;-65
2022/01/13 00:26:31;;;;;;;21.90;8.45;;;;;;;5.91;34.46;101485.25;4465811;32;33868;-66
2022/01/13 00:29:02;;;;;;;13.02;9.23;;;;;;;5.74;34.62;101480.34;4463583;32;32267;-66
2022/01/13 00:31:33;;;;;;;15.68;9.45;;;;;;;5.39;35.76;101481.28;4463689;32;34794;-65
2022/01/13 00:34:04;;;;;;;13.80;7.53;;;;;;;5.74;35.49;101476.84;4462534;32;33695;-66
2022/01/13 00:36:34;;;;;;;14.75;7.70;;;;;;;5.42;36.47;101472.38;4465946;32;32960;-64
2022/01/13 00:39:03;;;;;;;13.07;7.10;;;;;;;5.44;36.57;101479.41;4461529;32;32895;-64
2022/01/13 00:41:30;;;;;;;15.23;7.57;;;;;;;5.87;34.94;101467.59;4464413;32;33864;-65
2022/01/13 00:44:00;;;;;;;16.42;11.25;;;;;;;5.51;36.15;101475.66;4463632;32;35315;-66
2022/01/13 00:46:38;;;;;;;12.37;6.78;;;;;;;5.64;35.93;101475.34;4464010;32;33597;-64
2022/01/13 00:49:07;;;;;;;7.75;6.05;;;;;;;5.70;35.61;101478.72;4464296;32;33197;-66
2022/01/13 00:51:35;;;;;;;14.75;7.53;;;;;;;6.01;34.77;101477.91;4462191;32;32605;-66
2022/01/13 00:54:05;;;;;;;12.82;8.80;;;;;;;6.01;35.02;101486.75;4458968;32;33055;-65
2022/01/13 00:56:34;;;;;;;15.35;9.18;;;;;;;5.55;35.65;101489.72;4459491;32;34020;-65
2022/01/13 00:59:07;;;;;;;20.88;8.48;;;;;;;5.72;35.56;101491.97;4462084;32;33247;-66
2022/01/13 01:01:39;;;;;;;11.45;8.18;;;;;;;5.75;35.34;101498.06;4452650;32;34787;-64
2022/01/13 01:04:07;;;;;;;8.93;6.22;;;;;;;5.75;35.93;101497.19;4461034;32;33565;-66
2022/01/13 01:06:36;;;;;;;14.18;7.80;;;;;;;5.67;35.67;101501.84;4459140;32;34131;-67
2022/01/13 01:09:04;;;;;;;18.45;8.93;;;;;;;5.61;35.93;101506.38;4460988;32;33714;-65
2022/01/13 01:11:32;;;;;;;24.25;11.05;;;;;;;5.61;36.16;101498.41;4466657;32;33182;-67
2022/01/13 01:14:02;;;;;;;11.23;6.62;;;;;;;5.83;35.53;101497.84;4462797;32;34042;-67
2022/01/13 01:16:33;;;;;;;18.15;8.15;;;;;;;5.88;35.43;101503.06;4458882;32;33844;-68
2022/01/13 01:19:06;;;;;;;17.20;8.63;;;;;;;5.84;35.28;101492.50;4464347;32;32758;-67
2022/01/13 01:24:55;;;;;;;13.10;5.12;;;;;;;5.88;35.57;101511.03;4462838;32;33660;-68
2022/01/13 01:27:15;;;;;;;12.95;8.48;;;;;;;5.96;35.28;101515.22;4461942;32;34087;-68
2022/01/13 01:29:51;;;;;;;;;;;;;;;6.07;34.70;101505.19;4458434;32;34641;-66
2022/01/13 01:32:19;;;;;;;17.10;7.78;;;;;;;6.03;35.15;101497.31;4464139;32;32787;-65
2022/01/13 01:35:00;;;;;;;9.85;6.45;;;;;;;5.97;34.90;101506.38;4463966;32;33889;-63
2022/01/13 01:37:30;;;;;;;27.10;11.52;;;;;;;5.99;35.11;101509.84;4467629;32;34697;-66
2022/01/13 01:39:59;;;;;;;14.52;8.02;;;;;;;5.95;34.81;101502.88;4465237;32;34240;-66
2022/01/13 01:42:27;;;;;;;9.20;6.65;;;;;;;5.67;35.62;101494.72;4462940;32;33470;-65
2022/01/13 01:44:57;;;;;;;8.88;5.45;;;;;;;5.70;35.81;101509.72;4464066;32;33954;-66
2022/01/13 01:47:27;;;;;;;20.17;9.80;;;;;;;5.24;37.12;101514.44;4455781;32;35192;-65
2022/01/13 01:49:59;;;;;;;16.15;8.13;;;;;;;5.31;37.08;101508.06;4465931;32;36414;-63
2022/01/13 01:52:28;;;;;;;11.65;7.95;;;;;;;5.82;35.36;101504.09;4464469;32;35000;-66
2022/01/13 01:54:55;;;;;;;14.07;7.18;;;;;;;5.52;36.79;101503.09;4466531;32;33996;-64
2022/01/13 01:57:23;;;;;;;23.55;8.68;;;;;;;5.27;37.21;101505.53;4467275;32;33019;-63
2022/01/13 01:59:52;;;;;;;21.62;9.88;;;;;;;5.15;37.78;101517.31;4462831;32;34820;-63
2022/01/13 02:02:22;;;;;;;16.25;7.57;;;;;;;5.65;36.36;101509.84;4463487;32;33519;-65
2022/01/13 02:04:50;;;;;;;13.48;7.35;;;;;;;5.33;37.08;101518.66;4464192;32;33921;-65
2022/01/13 02:07:17;;;;;;;10.77;7.40;;;;;;;5.80;36.60;101516.53;4466929;32;34750;-64
2022/01/13 02:09:50;;;;;;;14.73;9.13;;;;;;;5.64;36.09;101513.41;4462258;32;33386;-63
2022/01/13 02:12:31;;;;;;;18.33;7.82;;;;;;;5.37;36.84;101510.56;4465600;32;34956;-65
2022/01/13 02:17:48;;;;;;;25.25;10.27;;;;;;;5.63;35.92;101505.50;4442489;32;34007;-66
2022/01/13 02:20:17;;;;;;;21.52;10.80;;;;;;;5.63;35.63;101494.87;4465945;32;33503;-64
2022/01/13 02:22:45;;;;;;;12.95;6.82;;;;;;;5.60;35.63;101503.78;4465501;31;32944;-66
2022/01/13 02:25:14;;;;;;;18.90;9.23;;;;;;;5.63;35.50;101503.69;4462261;32;34116;-66
2022/01/13 02:27:42;;;;;;;12.13;8.85;;;;;;;5.78;34.39;101498.00;4461338;32;33770;-65
2022/01/13 02:30:10;;;;;;;16.85;9.02;;;;;;;5.71;35.00;101498.19;4461968;32;34384;-65
2022/01/13 02:32:38;;;;;;;14.48;8.40;;;;;;;5.64;35.05;101504.56;4462415;32;33985;-68
2022/01/13 02:35:07;;;;;;;15.88;8.77;;;;;;;5.52;35.11;101511.06;4461444;32;35154;-67
2022/01/13 02:37:34;;;;;;;13.18;7.93;;;;;;;5.46;35.77;101511.25;4463594;32;32463;-68
2022/01/13 02:40:03;;;;;;;9.75;6.45;;;;;;;5.56;34.67;101518.94;4463329;32;32142;-68
2022/01/13 02:42:30;;;;;;;15.80;8.77;;;;;;;5.59;34.78;101515.34;4461915;32;32813;-67
2022/01/13 02:45:02;;;;;;;13.57;9.20;;;;;;;5.05;36.17;101523.75;4464322;32;33840;-69
2022/01/13 02:50:11;;;;;;;12.40;7.65;;;;;;;5.17;35.61;101498.66;4461361;32;33587;-68
2022/01/13 02:52:40;;;;;;;17.23;9.07;;;;;;;5.53;34.79;101497.75;4463510;32;33653;-67
2022/01/13 02:55:08;;;;;;;20.90;9.70;;;;;;;5.54;34.82;101499.50;4464567;32;35155;-68
2022/01/13 02:57:37;;;;;;;20.30;8.65;;;;;;;5.61;34.83;101490.44;4464807;32;35051;-68
2022/01/13 03:00:07;;;;;;;10.27;6.37;;;;;;;5.98;33.39;101489.50;4462845;32;33419;-66
2022/01/13 03:02:35;;;;;;;18.65;8.43;;;;;;;6.04;33.72;101486.66;4464808;32;33499;-67
2022/01/13 03:05:03;;;;;;;16.98;9.27;;;;;;;5.08;35.53;101494.47;4464015;32;34118;-66
2022/01/13 03:07:33;;;;;;;12.50;8.63;;;;;;;5.49;34.75;101495.19;4463695;32;33916;-67
2022/01/13 03:10:02;;;;;;;14.45;10.07;;;;;;;5.44;35.20;101505.09;4463572;32;32433;-66
2022/01/13 03:12:32;;;;;;;18.45;10.80;;;;;;;5.67;34.92;101509.81;4465285;32;33497;-67
2022/01/13 03:14:59;;;;;;;33.15;12.90;;;;;;;6.34;32.92;101502.66;4464665;32;33267;-67
2022/01/13 03:17:27;;;;;;;27.92;13.82;;;;;;;6.53;32.79;101502.97;4465362;32;33718;-67
2022/01/13 03:19:55;;;;;;;13.23;9.18;;;;;;;6.68;32.50;101512.28;4463835;32;34434;-67
2022/01/13 03:22:22;;;;;;;18.90;9.82;;;;;;;6.70;32.71;101519.28;4464766;32;33856;-69
2022/01/13 03:24:50;;;;;;;22.83;11.30;;;;;;;6.92;32.12;101521.28;4464383;32;35262;-66
2022/01/13 03:27:21;;;;;;;23.25;12.52;;;;;;;6.85;31.96;101533.06;4464957;32;33942;-69
2022/01/13 03:29:49;;;;;;;20.05;11.52;;;;;;;7.17;31.42;101540.03;4463530;32;34507;-66
2022/01/13 03:32:17;;;;;;;18.62;7.82;;;;;;;6.96;32.28;101531.78;4464789;32;34264;-69
2022/01/13 03:34:45;;;;;;;31.05;14.77;;;;;;;7.37;30.73;101531.38;4462676;32;34951;-68
2022/01/13 03:37:13;;;;;;;24.95;11.55;;;;;;;7.56;30.82;101540.50;4464989;32;32996;-67
2022/01/13 03:39:40;;;;;;;27.90;12.23;;;;;;;7.65;30.51;101540.19;4463136;32;33310;-65
2022/01/13 03:42:08;;;;;;;22.05;11.82;;;;;;;7.81;29.39;101532.56;4464578;32;33895;-66
2022/01/13 03:44:36;;;;;;;23.17;12.43;;;;;;;7.74;30.21;101539.03;4463523;32;34631;-66
2022/01/13 03:47:04;;;;;;;16.42;10.35;;;;;;;7.90;29.62;101521.56;4463112;32;34989;-66
2022/01/13 03:49:32;;;;;;;21.50;10.30;;;;;;;7.58;30.20;101524.47;4459418;32;32277;-68
2022/01/13 03:52:03;;;;;;;25.83;12.50;;;;;;;7.80;30.52;101514.81;4462093;32;33841;-67
2022/01/13 03:54:31;;;;;;;19.70;10.23;;;;;;;7.85;30.14;101511.97;4459646;32;34022;-65
2022/01/13 03:57:20;;;;;;;29.00;11.00;;;;;;;7.80;30.14;101511.25;4457888;32;32178;-67
2022/01/13 04:00:26;;;;;;;20.42;10.52;;;;;;;8.16;28.94;101506.44;4460355;32;33143;-66
2022/01/13 04:02:53;;;;;;;17.35;10.10;;;;;;;7.42;30.97;101527.66;4461916;32;33716;-68
2022/01/13 04:05:21;;;;;;;19.67;9.80;;;;;;;7.87;30.35;101523.47;4463208;32;35681;-66
2022/01/13 04:07:49;;;;;;;18.20;11.02;;;;;;;8.22;29.48;101518.66;4464562;32;34772;-66
2022/01/13 04:10:52;;;;;;;34.05;21.25;;;;;;;8.20;28.97;101509.84;4461958;32;34244;-66
2022/01/13 04:13:43;;;;;;;21.60;11.70;;;;;;;8.40;28.78;101508.19;4463214;32;32624;-68
2022/01/13 04:16:15;;;;;;;25.23;14.48;;;;;;;8.18;29.80;101512.56;4462332;32;32861;-65
2022/01/13 04:18:45;;;;;;;22.52;15.05;;;;;;;8.56;28.52;101513.81;4462894;32;33665;-68
2022/01/13 04:21:12;;;;;;;22.95;12.98;;;;;;;8.26;29.19;101505.16;4464097;32;34543;-66
2022/01/13 04:23:40;;;;;;;26.20;15.68;;;;;;;8.31;29.57;101502.31;4465379;32;33853;-65
2022/01/13 04:26:08;;;;;;;29.85;18.55;;;;;;;8.76;28.32;101480.16;4462686;32;33681;-66
2022/01/13 04:28:37;;;;;;;24.42;12.43;;;;;;;8.98;28.08;101477.50;4463673;32;34879;-65
2022/01/13 04:31:04;;;;;;;29.92;18.70;;;;;;;8.92;28.87;101475.94;4461595;32;33690;-69
2022/01/13 04:33:34;;;;;;;30.52;17.15;;;;;;;9.09;28.56;101464.56;4463655;32;33940;-68
2022/01/13 04:36:04;;;;;;;30.67;18.98;;;;;;;8.98;28.58;101464.13;4459659;32;33895;-66
2022/01/13 04:38:31;;;;;;;21.23;13.20;;;;;;;7.89;29.24;101470.94;4459856;32;35280;-66
2022/01/13 04:41:01;;;;;;;28.38;18.12;;;;;;;8.41;28.61;101463.72;4464732;32;33639;-67
2022/01/13 04:43:30;;;;;;;28.60;17.80;;;;;;;8.17;28.90;101469.00;4458702;32;32499;-64
2022/01/13 04:45:58;;;;;;;31.73;20.42;;;;;;;8.17;28.84;101462.81;4461212;32;35200;-65
2022/01/13 04:48:26;;;;;;;25.42;12.95;;;;;;;8.03;29.11;101467.81;4462662;32;32799;-68
2022/01/13 04:50:54;;;;;;;23.52;13.70;;;;;;;7.72;29.82;101468.03;4463368;32;33267;-67
2022/01/13 04:53:22;;;;;;;30.33;16.92;;;;;;;7.51;31.28;101474.97;4463756;32;33851;-65
2022/01/13 04:55:51;;;;;;;27.60;18.48;;;;;;;7.54;30.86;101483.72;4463669;32;34058;-65
2022/01/13 04:58:21;;;;;;;22.42;12.35;;;;;;;7.68;30.48;101485.94;4465285;32;34392;-66
2022/01/13 05:00:50;;;;;;;22.27;12.43;;;;;;;7.78;30.17;101476.69;4463266;32;32276;-66
2022/01/13 05:03:17;;;;;;;19.62;11.43;;;;;;;7.57;30.30;101483.63;4464607;32;33665;-66
2022/01/13 05:05:45;;;;;;;29.17;17.15;;;;;;;7.71;30.00;101483.16;4463275;32;35087;-65
2022/01/13 05:08:12;;;;;;;22.45;13.55;;;;;;;7.45;30.71;101494.72;4458052;32;34761;-65
2022/01/13 05:10:40;;;;;;;21.33;11.85;;;;;;;7.53;30.54;101497.13;4464372;32;34605;-66
2022/01/13 05:13:10;;;;;;;20.42;12.85;;;;;;;6.91;31.59;101508.91;4466014;32;35288;-65
2022/01/13 05:15:40;;;;;;;20.20;12.60;;;;;;;6.63;32.98;101503.56;4458503;32;34940;-66
2022/01/13 05:20:47;;;;;;;22.23;13.82;;;;;;;7.40;31.15;101500.19;4465995;32;33725;-65
2022/01/13 05:23:15;;;;;;;38.55;15.38;;;;;;;7.68;30.07;101518.78;4466416;32;34679;-64
2022/01/13 05:25:43;;;;;;;21.48;11.12;;;;;;;7.79;30.11;101512.19;4464676;32;33850;-66
2022/01/13 05:28:12;;;;;;;27.05;12.32;;;;;;;7.40;30.59;101520.63;4465400;32;34949;-66
2022/01/13 05:30:40;;;;;;;22.20;13.52;;;;;;;7.34;31.05;101521.69;4465900;32;34363;-67
2022/01/13 05:33:08;;;;;;;16.60;10.23;;;;;;;7.27;31.29;101529.97;4465208;32;32554;-67
2022/01/13 05:35:36;;;;;;;22.60;10.88;;;;;;;7.46;30.83;101534.63;4464314;32;35342;-63
2022/01/13 05:38:08;;;;;;;27.77;13.98;;;;;;;7.62;30.33;101539.44;4463900;32;33911;-66
2022/01/13 05:40:36;;;;;;;25.60;12.37;;;;;;;7.59;30.72;101540.41;4459638;32;32290;-64
2022/01/13 05:43:05;;;;;;;25.17;9.55;;;;;;;7.33;31.83;101543.06;4460487;32;33945;-66
2022/01/13 05:45:40;;;;;;;30.30;16.25;;;;;;;7.58;30.86;101540.47;4465409;32;35186;-66
2022/01/13 05:48:08;;;;;;;30.30;15.88;;;;;;;7.82;30.45;101530.75;4463105;32;34087;-66
2022/01/13 05:50:35;;;;;;;24.55;12.10;;;;;;;7.61;31.56;101524.38;4459389;32;32974;-67
2022/01/13 05:53:04;;;;;;;29.45;15.35;;;;;;;7.76;31.26;101526.50;4465863;32;35024;-65
2022/01/13 05:55:32;;;;;;;20.48;10.25;;;;;;;8.05;30.50;101517.47;4462121;32;33964;-64
2022/01/13 05:57:59;;;;;;;23.33;12.93;;;;;;;8.07;30.95;101514.75;4463967;32;33818;-64
2022/01/13 06:00:27;;;;;;;22.98;14.00;;;;;;;8.29;30.35;101517.50;4459175;32;34228;-64
2022/01/13 06:02:55;;;;;;;20.92;12.85;;;;;;;8.42;30.90;101518.81;4461926;32;32205;-63
2022/01/13 06:05:23;;;;;;;29.25;15.57;;;;;;;8.51;33.18;101522.97;4463359;32;34027;-65
2022/01/13 06:07:50;;;;;;;31.85;19.55;;;;;;;8.65;30.82;101517.06;4465431;32;33971;-65
2022/01/13 06:10:19;;;;;;;38.17;25.83;;;;;;;8.80;30.45;101521.84;4464677;32;34709;-64
2022/01/13 06:12:48;;;;;;;20.50;12.32;;;;;;;8.73;31.91;101518.53;4464813;32;33829;-65
2022/01/13 06:15:19;;;;;;;25.73;13.65;;;;;;;8.74;31.54;101527.41;4463016;32;34055;-67
2022/01/13 06:17:48;;;;;;;21.08;12.48;;;;;;;8.73;31.25;101513.19;4466358;32;32514;-67
2022/01/13 06:20:17;;;;;;;26.15;17.45;;;;;;;8.71;31.25;101516.84;4464456;32;33573;-66
2022/01/13 06:22:46;;;;;;;28.77;19.00;;;;;;;8.89;31.31;101504.56;4460625;32;32786;-66
2022/01/13 06:25:15;;;;;;;43.55;26.55;;;;;;;8.86;32.27;101501.09;4466157;32;35036;-66
2022/01/13 06:27:43;;;;;;;20.37;10.35;;;;;;;8.92;31.50;101499.09;4468189;32;34825;-67
2022/01/13 06:30:31;;;;;;;20.45;10.48;;;;;;;8.82;31.84;101496.78;4459917;32;34444;-65
2022/01/13 06:32:58;;;;;;;31.10;13.68;;;;;;;8.94;31.85;101508.78;4466748;32;34543;-67
2022/01/13 06:35:26;;;;;;;24.80;14.50;;;;;;;8.35;33.55;101503.94;4466405;32;34973;-67
2022/01/13 06:37:54;;;;;;;35.45;20.42;;;;;;;9.02;32.73;101506.69;4465987;32;33790;-68
2022/01/13 06:40:22;;;;;;;33.05;17.75;;;;;;;9.02;32.38;101505.81;4465824;32;33353;-67
2022/01/13 06:42:49;;;;;;;37.95;21.62;;;;;;;8.92;32.57;101499.09;4465765;32;34032;-67
2022/01/13 06:45:17;;;;;;;24.33;14.07;;;;;;;9.10;32.32;101509.91;4458207;32;33991;-66
2022/01/13 06:47:44;;;;;;;31.92;20.90;;;;;;;8.90;32.84;101507.19;4466641;32;33789;-68
2022/01/13 06:50:12;;;;;;;30.33;19.17;;;;;;;9.02;32.89;101509.38;4465294;32;33313;-67
2022/01/13 06:52:40;;;;;;;35.00;20.42;;;;;;;9.36;32.38;101502.62;4467245;32;34828;-68
2022/01/13 06:55:08;;;;;;;20.67;11.65;;;;;;;9.41;32.37;101507.78;4468196;32;33721;-67
2022/01/13 06:57:35;;;;;;;34.83;20.20;;;;;;;9.59;31.91;101508.81;4464485;32;33835;-66
2022/01/13 07:00:04;;;;;;;21.15;13.32;;;;;;;9.98;31.38;101508.88;4466236;32;33675;-68
2022/01/13 07:02:33;;;;;;;32.30;12.75;;;;;;;10.07;31.20;101511.13;4467876;32;32341;-67
2022/01/13 07:05:01;;;;;;;33.33;19.67;;;;;;;10.40;31.06;101508.81;4465956;32;34039;-68
2022/01/13 07:07:36;;;;;;;25.52;14.80;;;;;;;10.65;30.74;101505.81;4466685;32;34642;-69
2022/01/13 07:10:07;;;;;;;27.75;17.27;;;;;;;10.40;31.32;101511.47;4465228;32;33551;-69
2022/01/13 07:12:36;;;;;;;32.45;21.27;;;;;;;10.66;30.58;101512.06;4464171;32;33452;-68
2022/01/13 07:15:05;;;;;;;29.92;18.67;;;;;;;10.49;31.24;101503.00;4464256;32;34995;-67
2022/01/13 07:17:32;;;;;;;39.63;25.98;;;;;;;10.79;30.32;101496.28;4465540;32;33787;-70
2022/01/13 07:20:01;;;;;;;39.22;17.83;;;;;;;10.77;30.42;101507.06;4467390;32;33770;-67
2022/01/13 07:22:28;;;;;;;34.10;20.40;;;;;;;10.65;30.88;101521.03;4466141;32;34846;-70
2022/01/13 07:24:56;;;;;;;39.72;25.30;;;;;;;10.96;30.61;101520.44;4467211;32;34139;-67
2022/01/13 07:27:24;;;;;;;32.65;21.25;;;;;;;11.12;30.18;101528.63;4464010;32;32799;-70
2022/01/13 07:29:51;;;;;;;31.92;19.20;;;;;;;10.72;30.94;101527.81;4467637;32;33472;-68
2022/01/13 07:32:19;;;;;;;38.70;23.23;;;;;;;10.87;30.84;101523.56;4465181;32;33976;-69
2022/01/13 07:34:46;;;;;;;35.70;23.00;;;;;;;10.65;31.43;101518.34;4466563;32;33336;-66
2022/01/13 07:37:15;;;;;;;30.83;20.62;;;;;;;10.90;31.03;101535.00;4467200;32;34577;-67
2022/01/13 07:39:43;;;;;;;39.35;21.25;;;;;;;10.69;30.96;101530.69;4465265;32;33364;-67
2022/01/13 07:42:11;;;;;;;35.63;21.73;;;;;;;10.94;31.06;101531.22;4467267;32;33609;-67
2022/01/13 07:44:40;;;;;;;35.25;23.35;;;;;;;10.80;31.86;101535.53;4465941;32;34980;-66
2022/01/13 07:47:07;;;;;;;40.90;27.40;;;;;;;10.86;31.67;101541.44;4466284;32;35097;-67
2022/01/13 07:49:35;;;;;;;33.28;20.58;;;;;;;10.11;33.16;101539.53;4467229;32;33512;-66
2022/01/13 07:52:03;;;;;;;36.67;22.62;;;;;;;10.74;31.96;101544.69;4466440;32;32838;-67
2022/01/13 07:54:31;;;;;;;41.63;26.52;;;;;;;11.06;31.49;101550.34;4463771;32;33815;-67
2022/01/13 07:57:01;;;;;;;35.75;23.90;;;;;;;10.71;32.09;101548.37;4466287;32;32966;-67
2022/01/13 07:59:29;;;;;;;38.95;23.90;;;;;;;10.35;33.03;101553.62;4468073;32;34363;-69
2022/01/13 08:01:58;;;;;;;40.05;26.33;;;;;;;11.55;30.97;101554.16;4465230;32;33713;-66
2022/01/13 08:04:26;;;;;;;41.80;27.37;;;;;;;11.83;30.20;101547.41;4466467;32;34156;-65
2022/01/13 08:06:54;;;;;;;40.28;24.58;;;;;;;11.66;30.42;101551.81;4465397;32;33781;-66
2022/01/13 08:09:23;;;;;;;40.35;25.65;;;;;;;11.53;30.98;101552.53;4463443;32;33365;-66
2022/01/13 08:11:51;;;;;;;31.70;22.75;;;;;;;11.53;31.02;101547.16;4464715;32;32492;-66
2022/01/13 08:14:19;;;;;;;37.10;22.48;;;;;;;11.34;31.35;101553.44;4466076;32;32511;-66
2022/01/13 08:16:49;;;;;;;31.73;18.62;;;;;;;10.44;33.84;101550.53;4462883;32;34790;-65
2022/01/13 08:22:02;;;;;;;;;;;;;;;9.93;34.71;101545.66;4465775;32;34367;-66
2022/01/13 08:24:30;;;;;;;29.20;15.70;;;;;;;10.64;33.64;101554.97;4464138;32;35259;-70
2022/01/13 08:26:58;;;;;;;23.67;12.45;;;;;;;11.40;32.42;101563.00;4466114;32;32659;-67
2022/01/13 08:29:25;;;;;;;31.92;21.92;;;;;;;12.19;31.54;101557.19;4464324;32;32062;-67
2022/01/13 08:31:53;;;;;;;36.72;25.45;;;;;;;12.28;31.43;101559.41;4466435;32;34490;-66
2022/01/13 08:34:21;;;;;;;36.28;24.80;;;;;;;12.56;30.88;101553.44;4465573;32;35342;-67
2022/01/13 08:36:48;;;;;;;39.53;26.08;;;;;;;12.33;31.34;101557.34;4464717;32;34828;-68
2022/01/13 08:39:16;;;;;;;37.60;25.80;;;;;;;12.03;32.31;101549.09;4463501;32;33577;-67
2022/01/13 08:41:45;;;;;;;37.45;26.52;;;;;;;13.07;30.39;101556.00;4465085;32;34328;-67
2022/01/13 08:44:12;;;;;;;35.10;24.27;;;;;;;11.76;32.21;101544.16;4464671;32;35142;-66
2022/01/13 08:46:40;;;;;;;38.10;24.90;;;;;;;11.49;32.89;101545.56;4467914;32;33936;-67
2022/01/13 08:49:09;;;;;;;36.65;24.67;;;;;;;10.34;35.28;101541.19;4468596;32;34288;-67
2022/01/13 08:51:37;;;;;;;40.03;26.37;;;;;;;11.40;33.98;101546.91;4466146;32;33661;-68
2022/01/13 08:54:05;;;;;;;37.30;24.67;;;;;;;10.40;36.18;101548.94;4467900;32;34075;-67
2022/01/13 08:56:32;;;;;;;35.00;21.45;;;;;;;11.05;35.04;101544.12;4466233;32;34669;-67
2022/01/13 08:59:00;;;;;;;29.63;19.98;;;;;;;11.13;34.74;101547.28;4466923;32;33299;-67
2022/01/13 09:01:30;;;;;;;34.55;20.12;;;;;;;10.78;35.30;101546.28;4468852;32;33749;-67
2022/01/13 09:03:58;;;;;;;35.15;21.15;;;;;;;10.24;37.14;101548.75;4467894;32;34079;-67
2022/01/13 09:06:26;;;;;;;37.33;25.15;;;;;;;9.31;38.42;101553.59;4467531;32;33570;-67
2022/01/13 09:08:53;;;;;;;38.50;25.15;;;;;;;9.76;38.30;101551.75;4466692;32;33489;-67
2022/01/13 09:11:21;;;;;;;17.08;9.38;;;;;;;9.47;39.13;101550.28;4468529;32;34953;-67
2022/01/13 09:13:56;;;;;;;28.48;18.00;;;;;;;9.94;38.15;101553.62;4467353;32;33862;-66
2022/01/13 09:16:26;;;;;;;20.27;9.95;;;;;;;10.32;37.73;101547.56;4469020;32;33787;-67
2022/01/13 09:21:26;;;;;;;33.42;22.98;;;;;;;11.36;35.37;101558.69;4468730;32;33858;-66
2022/01/13 09:23:54;;;;;;;32.25;21.55;;;;;;;13.11;32.35;101558.41;4466266;32;33922;-67
2022/01/13 09:26:22;;;;;;;41.85;27.45;;;;;;;13.30;32.27;101554.72;4468359;32;33910;-68
2022/01/13 09:28:50;;;;;;;35.17;22.15;;;;;;;12.82;32.75;101549.31;4466993;32;34815;-67
2022/01/13 09:31:17;;;;;;;33.03;22.87;;;;;;;12.45;33.26;101553.13;4466892;32;33746;-68
2022/01/13 09:33:45;;;;;;;30.77;21.65;;;;;;;11.85;34.33;101567.03;4464303;32;34333;-70
2022/01/13 09:36:13;;;;;;;33.83;22.50;;;;;;;13.28;32.08;101566.41;4468023;32;33851;-67
2022/01/13 09:38:40;;;;;;;31.70;21.35;;;;;;;13.48;31.55;101564.41;4467646;32;32986;-67
2022/01/13 09:41:08;;;;;;;33.20;21.85;;;;;;;13.60;31.11;101570.91;4467780;32;34163;-67
2022/01/13 09:43:36;;;;;;;34.08;21.98;;;;;;;12.26;33.08;101570.25;4464603;32;34818;-67
2022/01/13 09:46:04;;;;;;;32.22;21.33;;;;;;;13.12;32.56;101565.53;4466406;32;34674;-66
2022/01/13 09:48:32;;;;;;;32.65;22.48;;;;;;;14.82;29.36;101557.19;4466623;32;33513;-67
2022/01/13 09:50:59;;;;;;;31.45;20.85;;;;;;;14.08;30.42;101556.34;4466526;32;34780;-66
2022/01/13 09:53:27;;;;;;;34.63;22.02;;;;;;;13.26;32.06;101545.97;4465201;32;34088;-68
2022/01/13 09:55:55;;;;;;;29.15;19.50;;;;;;;12.18;33.96;101545.59;4467603;32;33805;-67
2022/01/13 09:58:22;;;;;;;29.35;20.05;;;;;;;11.90;34.67;101538.13;4468257;32;33340;-67
2022/01/13 10:00:50;;;;;;;30.50;20.90;;;;;;;11.57;35.11;101533.50;4467142;32;35078;-66
2022/01/13 10:03:23;;;;;;;27.52;20.25;;;;;;;11.81;34.78;101522.47;4466230;32;33999;-69
2022/01/13 10:06:01;;;;;;;32.97;21.50;;;;;;;12.07;34.45;101527.38;4464881;32;32768;-66
2022/01/13 10:08:41;;;;;;;29.75;20.45;;;;;;;12.80;33.21;101517.12;4465803;32;32230;-66
2022/01/13 10:11:40;;;;;;;35.30;23.38;;;;;;;12.15;34.48;101518.91;4467563;32;35343;-67
2022/01/13 10:14:15;;;;;;;32.33;21.98;;;;;;;12.63;33.39;101508.28;4463357;32;34163;-67
2022/01/13 10:16:54;;;;;;;32.95;20.50;;;;;;;13.05;32.65;101518.44;4463403;32;34010;-67
2022/01/13 10:19:29;;;;;;;29.02;20.17;;;;;;;12.74;33.06;101512.09;4465505;32;32475;-66
2022/01/13 10:22:02;;;;;;;31.17;22.83;;;;;;;13.30;32.47;101506.31;4466297;32;33934;-69
2022/01/13 10:24:32;;;;;;;29.30;18.85;;;;;;;12.99;32.71;101499.97;4466203;32;32878;-67
2022/01/13 10:27:10;;;;;;;27.90;18.85;;;;;;;12.28;33.88;101506.56;4468074;32;34336;-67
2022/01/13 10:29:57;;;;;;;57.88;42.90;;;;;;;12.95;32.88;101503.78;4466024;32;33517;-66
2022/01/13 10:32:27;;;;;;;36.67;24.40;;;;;;;11.90;34.75;101513.97;4466422;32;31686;-67
2022/01/13 10:34:59;;;;;;;29.45;20.02;;;;;;;12.30;33.96;101517.25;4464725;32;33755;-67
2022/01/13 10:37:33;;;;;;;37.20;25.73;;;;;;;13.15;32.50;101508.03;4467443;32;32675;-66
2022/01/13 10:40:03;;;;;;;30.02;19.75;;;;;;;13.42;32.25;101501.09;4465644;32;33291;-69
2022/01/13 10:45:01;;;;;;;30.77;19.25;;;;;;;13.59;31.96;101483.94;4464935;32;34805;-65
2022/01/13 10:47:32;;;;;;;25.08;17.95;;;;;;;13.17;32.06;101484.63;4465519;32;33634;-67
2022/01/13 10:50:03;;;;;;;25.50;17.50;;;;;;;12.66;33.15;101479.44;4465045;32;33603;-69
2022/01/13 10:52:31;;;;;;;28.52;18.42;;;;;;;11.96;34.50;101486.81;4460872;32;35522;-66
2022/01/13 10:55:03;;;;;;;28.45;19.52;;;;;;;11.09;35.98;101488.56;4467902;32;33869;-66
2022/01/13 10:57:31;;;;;;;27.58;18.85;;;;;;;10.49;37.63;101481.56;4466726;32;33481;-67
2022/01/13 10:59:59;;;;;;;25.27;15.13;;;;;;;10.75;37.30;101484.81;4466835;32;33232;-67
2022/01/13 11:02:27;;;;;;;24.17;14.85;;;;;;;11.62;35.34;101493.91;4466606;32;35043;-68
2022/01/13 11:05:01;;;;;;;31.23;22.02;;;;;;;11.36;35.61;101487.22;4466152;32;32717;-66
2022/01/13 11:07:30;;;;;;;27.98;18.55;;;;;;;12.50;33.81;101483.94;4465978;32;35125;-68
2022/01/13 11:10:00;;;;;;;24.15;15.15;;;;;;;12.63;33.60;101482.28;4467325;32;34594;-67
2022/01/13 11:12:32;;;;;;;33.63;24.15;;;;;;;12.40;33.51;101485.38;4466197;32;35074;-67
2022/01/13 11:15:05;;;;;;;37.95;22.48;;;;;;;10.76;36.75;101485.72;4465347;32;34237;-67
2022/01/13 11:17:38;;;;;;;30.40;19.45;;;;;;;11.31;36.26;101481.19;4466585;32;34035;-67
2022/01/13 11:20:08;;;;;;;28.02;16.25;;;;;;;11.34;36.07;101473.00;4465262;32;34289;-66
2022/01/13 11:22:42;;;;;;;31.08;21.08;;;;;;;10.98;36.78;101480.16;4461924;32;34601;-67
2022/01/13 11:25:13;;;;;;;29.87;20.35;;;;;;;11.66;35.50;101468.66;4464091;32;35370;-66
2022/01/13 11:27:41;;;;;;;30.08;22.20;;;;;;;11.28;36.21;101461.72;4462146;32;34326;-66
2022/01/13 11:30:20;;;;;;;33.17;21.92;;;;;;;9.37;39.77;101448.22;4464108;32;34578;-66
2022/01/13 11:32:50;;;;;;;27.58;18.90;;;;;;;10.23;38.76;101456.00;4462597;32;33815;-68
2022/01/13 11:35:24;;;;;;;25.15;16.75;;;;;;;9.55;39.81;101451.94;4459548;32;33716;-66
2022/01/13 11:37:53;;;;;;;20.67;14.35;;;;;;;9.45;40.04;101446.13;4478069;32;33836;-70
2022/01/13 11:40:26;;;;;;;21.35;14.15;;;;;;;9.50;40.65;101452.16;4461007;32;34152;-66
2022/01/13 11:43:02;;;;;;;20.37;11.00;;;;;;;9.67;40.05;101447.88;4466562;32;32618;-66
2022/01/13 11:45:37;;;;;;;18.25;9.77;;;;;;;9.52;40.25;101449.38;4464138;32;32653;-66
2022/01/13 11:48:19;;;;;;;17.42;9.00;;;;;;;7.90;43.96;101454.06;4464528;32;34598;-66